CheckWX is a tool to help pilots better visualize weather data.  It is not intended as a substitute for an official pre-flight weather briefing.

21:59:01 UTC

PABE METAR
Bethel Airport
Bethel, Alaska, USA
Current

1 hour ago

PABE 112053Z 24008KT 10SM FEW110 17/10 A2977 RMK AO2 SLP082 T01720100 58009
Observed
Jul-11 @ 20:53 UTC
Wind
  • 240° at 8 KTS
Visibility
10 SM
Flight Rules
VFR
Cloud Levels
  • Few at 11,000' AGL
Temperature
17°C / 63°F
Dewpoint
10°C / 50°F
Humidity
64%
Altimeter
29.77" Hg
Pressure
1008.12 hPa
Previous

2 hours ago

PABE 111953Z 23005KT 10SM FEW060 BKN120 16/11 A2978 RMK AO2 SLP087 T01560111
Observed
Jul-11 @ 19:53 UTC
Wind
  • 230° at 5 KTS
Visibility
10 SM
Flight Rules
VFR
Cloud Levels
  • Few at 6,000' AGL
  • Broken at 12,000' AGL
Temperature
16°C / 61°F
Dewpoint
11°C / 52°F
Humidity
72%
Altimeter
29.78" Hg
Pressure
1008.42 hPa
Previous

3 hours ago

PABE 111853Z 31006KT 10SM OVC060 13/10 A2980 RMK AO2 SLP091 T01280100
Observed
Jul-11 @ 18:53 UTC
Wind
  • 310° at 6 KTS
Visibility
10 SM
Flight Rules
VFR
Cloud Levels
  • Overcast at 6,000' AGL
Temperature
13°C / 55°F
Dewpoint
10°C / 50°F
Humidity
82%
Altimeter
29.8" Hg
Pressure
1009.12 hPa